Rawalakot Weather



Rawalakot's Current Weather

Temprature 12.766o overcast clouds

overcast clouds

Rain: 0 %

Min Temprature12.766o
Max Temprature12.766o
Humidity73
Wind Speed2.84 m/h
Sun Rise05:27:31
Sun Set18:39:39
Current Time: 21-Apr-2019 06:20:37
Lat/Lon: 33.86, 73.76




Rawalakot's Geo Location



Rawalakot's Weather Forecast

Time Overall Temp Min Temp Max Temp Humidity Wind Speed Rain
21-Apr-2019 (Sun)
08:00:00 few clouds 18.390 18.389 18.390 55 2.49 m/h 0 %
11:00:00 clear sky 23.250 23.250 23.250 37 1.65 m/h 0 %
14:00:00 clear sky 24.050 24.050 24.050 37 2.91 m/h 0 %
17:00:00 clear sky 22.650 22.650 22.650 41 1.58 m/h 0 %
20:00:00 light rain 16.950 16.950 16.950 55 1.85 m/h 6 %
23:00:00 clear sky 15.080 15.080 15.080 64 2.86 m/h 0 %
22-Apr-2019 (Mon)
02:00:00 clear sky 13.870 13.870 13.870 64 3.26 m/h 0 %
05:00:00 clear sky 12.954 12.954 12.954 61 3.29 m/h 0 %
08:00:00 clear sky 19.146 19.146 19.146 50 3.04 m/h 0 %
11:00:00 clear sky 25.720 25.720 25.720 28 0.99 m/h 0 %
14:00:00 clear sky 26.315 26.315 26.315 27 2.56 m/h 0 %
17:00:00 clear sky 24.831 24.831 24.831 34 1.74 m/h 0 %
20:00:00 clear sky 18.150 18.150 18.150 45 2.13 m/h 0 %
23:00:00 clear sky 16.196 16.196 16.196 50 3.14 m/h 0 %
23-Apr-2019 (Tue)
02:00:00 clear sky 14.877 14.877 14.877 55 3.73 m/h 0 %
05:00:00 scattered clouds 14.246 14.246 14.246 55 3.73 m/h 0 %
08:00:00 overcast clouds 19.787 19.787 19.787 48 3.54 m/h 0 %
11:00:00 overcast clouds 26.950 26.950 26.950 24 1.35 m/h 0 %
14:00:00 broken clouds 28.150 28.150 28.150 23 2.1 m/h 0 %
17:00:00 scattered clouds 26.350 26.350 26.350 31 1.98 m/h 0 %
20:00:00 light rain 19.528 19.528 19.528 41 2.05 m/h 13 %
23:00:00 broken clouds 17.450 17.450 17.450 46 2.93 m/h 0 %
24-Apr-2019 (Wed)
02:00:00 light rain 16.882 16.882 16.882 47 3.48 m/h 6 %
05:00:00 light rain 16.524 16.524 16.524 51 3.74 m/h 44 %
08:00:00 light rain 18.150 18.150 18.150 58 3.92 m/h 138 %
11:00:00 light rain 24.409 24.409 24.409 38 3.54 m/h 263 %
14:00:00 overcast clouds 25.350 25.350 25.350 37 3.17 m/h 0 %
17:00:00 light rain 22.250 22.250 22.250 47 1.34 m/h 31 %
20:00:00 light rain 17.455 17.455 17.455 60 4.29 m/h 100 %
23:00:00 moderate rain 15.145 15.145 15.145 74 3.75 m/h 369 %
25-Apr-2019 (Thu)
02:00:00 moderate rain 14.850 14.850 14.850 77 4.66 m/h 325 %
05:00:00 light rain 13.942 13.942 13.942 76 4.17 m/h 106 %
08:00:00 light rain 18.720 18.720 18.720 61 3.95 m/h 44 %
11:00:00 broken clouds 25.290 25.290 25.290 27 2.69 m/h 0 %
14:00:00 clear sky 26.650 26.650 26.650 25 3.71 m/h 0 %
17:00:00 scattered clouds 24.711 24.711 24.711 36 1.69 m/h 0 %
20:00:00 light rain 16.425 16.425 16.425 49 2.69 m/h 113 %
23:00:00 light rain 14.243 14.243 14.243 52 3.5 m/h 50 %
26-Apr-2019 (Fri)
02:00:00 light rain 13.332 13.332 13.332 54 4.03 m/h 125 %
05:00:00 light rain 12.896 12.896 12.896 58 3.9 m/h 94 %

Famous Cities (60)